Time;durP1;ratioP1;P1;durP2;ratioP2;P2;SDS_P1;SDS_P2;PMS_P1;PMS_P2;Temp;Humidity;BMP_temperature;BMP_pressure;BME280_temperature;BME280_humidity;BME280_pressure;Samples;Min_cycle;Max_cycle;Signal;HPM_P1;HPM_P2
2022/09/20 00:01:48;;;;;;;5.13;4.60;;;28.00;54.50;;;;;;5115060;27;20459;-69
2022/09/20 00:04:19;;;;;;;5.20;4.40;;;27.90;54.20;;;;;;5099410;28;20524;-68
2022/09/20 00:06:51;;;;;;;5.23;4.73;;;27.90;54.10;;;;;;5118998;28;20463;-69
2022/09/20 00:09:22;;;;;;;4.97;4.47;;;27.80;54.20;;;;;;5106602;28;20463;-69
2022/09/20 00:11:53;;;;;;;4.87;4.47;;;27.80;55.70;;;;;;5107377;28;21118;-71
2022/09/20 00:14:23;;;;;;;5.20;4.63;;;27.60;55.90;;;;;;5116186;27;20486;-70
2022/09/20 00:16:54;;;;;;;5.63;4.27;;;27.60;56.00;;;;;;5102357;28;20526;-73
2022/09/20 00:19:25;;;;;;;4.97;4.47;;;27.60;55.30;;;;;;5105182;28;20474;-72
2022/09/20 00:21:57;;;;;;;6.47;4.93;;;27.60;54.90;;;;;;5108498;28;20507;-70
2022/09/20 00:24:28;;;;;;;4.67;4.27;;;27.60;56.30;;;;;;5108890;28;20468;-69
2022/09/20 00:26:59;;;;;;;5.27;4.77;;;27.50;56.80;;;;;;5108350;28;20438;-71
2022/09/20 00:29:30;;;;;;;5.33;4.00;;;27.50;56.40;;;;;;5108831;28;20482;-68
2022/09/20 00:32:01;;;;;;;5.50;5.00;;;27.40;57.10;;;;;;5108328;28;20452;-69
2022/09/20 00:37:21;;;;;;;6.50;5.70;;;27.30;57.00;;;;;;5108411;28;20970;-68
2022/09/20 00:39:51;;;;;;;5.33;4.83;;;27.20;56.00;;;;;;5108566;28;20830;-68
2022/09/20 00:42:28;;;;;;;5.13;4.67;;;27.20;54.80;;;;;;5108132;28;20442;-69
2022/09/20 00:45:00;;;;;;;7.37;6.63;;;27.20;55.50;;;;;;5105544;28;20435;-69
2022/09/20 00:47:38;;;;;;;7.80;5.57;;;27.10;56.30;;;;;;5105418;28;20526;-70
2022/09/20 00:50:29;;;;;;;8.80;6.30;;;27.00;55.50;;;;;;5104822;28;20539;-68
2022/09/20 00:53:06;;;;;;;7.17;4.50;;;26.90;57.20;;;;;;5105224;28;20512;-68
2022/09/20 00:55:41;;;;;;;7.37;5.10;;;26.90;56.50;;;;;;5085194;28;20536;-69
2022/09/20 00:58:13;;;;;;;5.97;5.30;;;26.80;57.30;;;;;;5084616;28;20568;-69
2022/09/20 01:00:46;;;;;;;6.40;5.10;;;26.60;58.90;;;;;;5096919;28;20473;-68
2022/09/20 01:03:19;;;;;;;5.07;4.57;;;26.50;57.60;;;;;;5109906;28;20481;-70
2022/09/20 01:05:50;;;;;;;5.60;5.10;;;26.50;56.30;;;;;;5105319;28;20525;-69
2022/09/20 01:08:24;;;;;;;6.37;4.43;;;26.40;57.10;;;;;;5101267;28;20536;-68
2022/09/20 01:10:55;;;;;;;5.07;4.47;;;26.30;59.40;;;;;;5109159;28;20453;-70
2022/09/20 01:13:26;;;;;;;5.90;5.30;;;26.20;58.20;;;;;;5114625;28;20468;-68
2022/09/20 01:16:00;;;;;;;5.73;5.20;;;26.10;60.60;;;;;;5105052;28;20496;-71
2022/09/20 01:18:32;;;;;;;6.10;5.50;;;26.00;60.50;;;;;;5088689;28;20453;-72
2022/09/20 01:21:04;;;;;;;5.73;5.13;;;25.90;60.90;;;;;;5103375;28;20514;-73
2022/09/20 01:23:46;;;;;;;5.90;5.30;;;25.90;61.20;;;;;;5104842;28;20458;-75
2022/09/20 01:26:38;;;;;;;5.90;5.30;;;25.80;61.20;;;;;;5104025;28;20542;-72
2022/09/20 01:29:22;;;;;;;5.90;5.10;;;25.60;63.00;;;;;;5098305;28;20450;-71
2022/09/20 01:31:55;;;;;;;6.07;5.50;;;25.50;65.60;;;;;;5103568;28;20470;-68
2022/09/20 01:34:33;;;;;;;5.67;4.93;;;25.30;68.40;;;;;;5111363;28;21012;-81
2022/09/20 01:37:13;;;;;;;8.23;5.77;;;25.20;67.20;;;;;;5105808;28;20465;-74
2022/09/20 01:39:55;;;;;;;5.77;4.97;;;25.00;69.70;;;;;;5107613;28;20461;-69
2022/09/20 01:42:30;;;;;;;5.57;4.90;;;24.90;71.10;;;;;;5104476;28;20462;-70
2022/09/20 01:45:10;;;;;;;5.30;4.60;;;24.80;72.20;;;;;;5104105;28;20493;-68
2022/09/20 01:47:49;;;;;;;5.43;4.93;;;24.60;73.80;;;;;;5099794;28;20986;-71
2022/09/20 01:50:30;;;;;;;5.60;5.10;;;24.60;71.40;;;;;;5105336;28;20613;-74
2022/09/20 01:53:27;;;;;;;5.80;5.03;;;24.50;71.90;;;;;;5104667;28;20460;-73
2022/09/20 01:56:42;;;;;;;4.67;4.20;;;24.40;73.20;;;;;;5103480;28;20525;-70
2022/09/20 01:59:46;;;;;;;7.23;4.77;;;24.30;73.90;;;;;;5111814;28;20455;-72
2022/09/20 02:02:39;;;;;;;6.40;5.33;;;24.20;76.20;;;;;;5110182;28;20497;-69
2022/09/20 02:05:44;;;;;;;6.10;5.27;;;24.00;78.20;;;;;;5103407;28;20589;-67
2022/09/20 02:08:46;;;;;;;6.30;5.20;;;23.80;80.60;;;;;;5102001;28;20519;-68
2022/09/20 02:11:18;;;;;;;6.30;5.67;;;23.60;82.50;;;;;;5067873;28;20843;-68
2022/09/20 02:14:05;;;;;;;5.83;5.00;;;23.50;82.90;;;;;;5101123;28;20512;-68
2022/09/20 02:16:54;;;;;;;7.30;6.00;;;23.40;82.70;;;;;;5098468;28;20491;-68
2022/09/20 02:20:04;;;;;;;5.43;4.93;;;23.30;82.80;;;;;;5099339;28;20520;-67
2022/09/20 02:22:45;;;;;;;6.37;5.20;;;23.20;84.30;;;;;;5049665;28;20449;-67
2022/09/20 02:25:38;;;;;;;6.73;5.23;;;23.10;87.00;;;;;;5064756;28;20467;-67
2022/09/20 02:28:24;;;;;;;6.33;5.73;;;22.90;88.00;;;;;;5056589;28;20943;-67
2022/09/20 02:31:03;;;;;;;7.00;5.27;;;22.80;87.70;;;;;;5065879;28;20452;-66
2022/09/20 02:34:21;;;;;;;6.90;5.50;;;22.70;87.50;;;;;;5070721;28;21696;-67
2022/09/20 02:37:11;;;;;;;6.10;5.40;;;22.70;87.90;;;;;;5057600;28;20492;-67
2022/09/20 02:39:55;;;;;;;5.43;4.60;;;22.60;90.30;;;;;;5072297;28;20448;-67
2022/09/20 02:42:34;;;;;;;5.80;5.23;;;22.50;90.70;;;;;;5064183;28;20464;-67
2022/09/20 02:45:12;;;;;;;8.70;5.50;;;22.40;90.60;;;;;;5065973;28;20445;-67
2022/09/20 02:47:45;;;;;;;7.10;6.40;;;22.30;91.90;;;;;;5066243;28;20452;-68
2022/09/20 02:50:32;;;;;;;5.70;5.20;;;22.20;92.10;;;;;;5066670;28;20506;-66
2022/09/20 02:53:18;;;;;;;6.30;5.70;;;22.10;92.80;;;;;;5074099;28;20678;-66
2022/09/20 02:56:00;;;;;;;6.67;5.43;;;22.00;93.40;;;;;;5102993;28;20512;-68
2022/09/20 02:58:41;;;;;;;7.10;5.47;;;21.90;94.20;;;;;;5116792;28;20450;-67
2022/09/20 03:01:21;;;;;;;9.60;6.20;;;21.80;94.50;;;;;;5118199;28;20479;-68
2022/09/20 03:04:00;;;;;;;7.63;6.90;;;21.70;95.60;;;;;;5102535;28;20457;-68
2022/09/20 03:06:40;;;;;;;6.13;5.47;;;21.60;95.90;;;;;;5102379;28;20507;-67
2022/09/20 03:09:19;;;;;;;8.47;6.23;;;21.50;97.00;;;;;;5108974;28;20838;-66
2022/09/20 03:11:58;;;;;;;7.00;6.30;;;21.40;97.80;;;;;;5117683;28;20449;-68
2022/09/20 03:14:35;;;;;;;7.57;6.27;;;21.30;98.80;;;;;;5085266;28;20445;-68
2022/09/20 03:17:14;;;;;;;10.20;8.17;;;21.30;98.90;;;;;;5102442;28;20535;-68
2022/09/20 03:20:10;;;;;;;10.23;9.13;;;21.20;99.90;;;;;;5103137;28;20515;-68
2022/09/20 03:22:54;;;;;;;12.73;10.50;;;21.20;99.90;;;;;;5079192;28;20440;-67
2022/09/20 03:25:51;;;;;;;12.20;10.40;;;21.10;99.90;;;;;;5099993;28;20446;-68
2022/09/20 03:28:37;;;;;;;9.70;8.70;;;20.90;99.90;;;;;;5097579;28;20519;-68
2022/09/20 03:31:19;;;;;;;10.93;9.87;;;20.80;99.90;;;;;;5101530;28;20515;-67
2022/09/20 03:34:00;;;;;;;10.73;9.60;;;20.80;99.90;;;;;;5121617;28;20517;-67
2022/09/20 03:36:50;;;;;;;10.43;9.37;;;20.80;99.90;;;;;;5101999;28;21064;-67
2022/09/20 03:39:53;;;;;;;9.13;8.13;;;20.70;99.90;;;;;;5102552;28;20524;-68
2022/09/20 03:42:28;;;;;;;7.23;6.43;;;20.70;99.90;;;;;;5100581;28;20473;-64
2022/09/20 03:45:30;;;;;;;10.33;7.47;;;20.60;99.90;;;;;;5100549;28;20809;-66
2022/09/20 03:48:35;;;;;;;8.63;7.73;;;20.50;99.90;;;;;;5096880;28;20488;-66
2022/09/20 03:51:16;;;;;;;8.37;7.57;;;20.50;99.90;;;;;;5108711;28;20458;-64
2022/09/20 03:54:30;;;;;;;8.80;6.93;;;20.40;99.90;;;;;;5109249;28;20459;-65
2022/09/20 03:57:35;;;;;;;8.00;7.20;;;20.30;99.90;;;;;;5088860;28;20528;-65
2022/09/20 04:00:33;;;;;;;9.00;7.30;;;20.30;99.90;;;;;;5101762;28;20432;-65
2022/09/20 04:03:35;;;;;;;6.90;6.20;;;20.20;99.90;;;;;;5087101;28;20472;-63
2022/09/20 04:06:23;;;;;;;7.40;6.00;;;20.20;99.90;;;;;;5090200;28;20470;-64
2022/09/20 04:09:18;;;;;;;7.90;6.23;;;20.10;99.90;;;;;;5097181;28;20463;-64
2022/09/20 04:11:58;;;;;;;6.93;6.10;;;20.00;99.90;;;;;;5101150;28;21484;-63
2022/09/20 04:14:40;;;;;;;6.83;6.13;;;19.90;99.90;;;;;;5104182;28;20807;-65
2022/09/20 04:17:25;;;;;;;6.70;5.90;;;19.90;99.90;;;;;;5105029;28;20486;-65
2022/09/20 04:20:03;;;;;;;7.27;6.03;;;19.90;99.90;;;;;;5109170;28;20539;-65
2022/09/20 04:22:34;;;;;;;6.50;5.73;;;19.90;99.90;;;;;;5106012;28;20672;-65
2022/09/20 04:25:13;;;;;;;8.17;6.20;;;19.90;99.90;;;;;;5113170;28;20470;-64
2022/09/20 04:27:47;;;;;;;6.80;6.20;;;19.90;99.90;;;;;;5104198;28;20454;-63
2022/09/20 04:30:23;;;;;;;7.57;6.50;;;19.80;99.90;;;;;;5109242;28;20443;-64
2022/09/20 04:32:59;;;;;;;7.13;6.40;;;19.80;99.90;;;;;;5104022;28;20438;-64
2022/09/20 04:38:34;;;;;;;7.00;6.30;;;19.60;99.90;;;;;;5089374;28;20504;-64
2022/09/20 04:41:33;;;;;;;8.90;6.50;;;19.50;99.90;;;;;;5106769;28;20458;-64
2022/09/20 04:44:26;;;;;;;7.10;6.20;;;19.40;99.90;;;;;;5106015;28;20784;-64
2022/09/20 04:47:36;;;;;;;7.60;5.50;;;19.40;99.90;;;;;;5108497;28;20504;-65
2022/09/20 04:50:39;;;;;;;9.60;5.90;;;19.30;99.90;;;;;;5106791;28;20542;-64
2022/09/20 04:53:30;;;;;;;6.50;5.40;;;19.30;99.90;;;;;;5097921;28;20513;-64
2022/09/20 04:56:04;;;;;;;8.10;6.90;;;19.20;99.90;;;;;;5108029;28;20480;-65
2022/09/20 04:58:49;;;;;;;7.40;6.50;;;19.10;99.90;;;;;;5104079;28;20459;-63
2022/09/20 05:02:02;;;;;;;7.93;5.53;;;19.00;99.90;;;;;;5104505;28;20466;-64
2022/09/20 05:05:07;;;;;;;7.60;6.80;;;19.00;99.90;;;;;;5104680;28;20462;-63
2022/09/20 05:08:31;;;;;;;6.90;5.57;;;19.00;99.90;;;;;;5080681;28;20531;-64
2022/09/20 05:11:50;;;;;;;6.43;5.80;;;18.90;99.90;;;;;;5107155;28;20422;-63
2022/09/20 05:14:56;;;;;;;7.77;5.57;;;18.80;99.90;;;;;;5095766;28;20458;-63
2022/09/20 05:17:37;;;;;;;6.80;5.13;;;18.70;99.90;;;;;;5104816;28;20531;-63
2022/09/20 05:20:35;;;;;;;7.60;6.57;;;18.70;99.90;;;;;;5107309;28;20482;-64
2022/09/20 05:23:39;;;;;;;8.27;6.50;;;18.70;99.90;;;;;;5104908;28;20548;-64
2022/09/20 05:26:30;;;;;;;6.60;5.70;;;18.70;99.90;;;;;;5101732;28;20478;-64
2022/09/20 05:29:09;;;;;;;6.73;5.83;;;18.60;99.90;;;;;;5106955;28;20432;-64
2022/09/20 05:31:46;;;;;;;5.43;4.93;;;18.50;99.90;;;;;;5113418;28;20458;-64
2022/09/20 05:34:25;;;;;;;5.60;4.47;;;18.40;99.90;;;;;;5102206;28;20450;-64
2022/09/20 05:37:02;;;;;;;6.03;5.47;;;18.40;99.90;;;;;;5106790;28;20834;-63
2022/09/20 05:39:39;;;;;;;6.03;5.40;;;18.30;99.90;;;;;;5102057;28;20466;-64
2022/09/20 05:42:19;;;;;;;5.97;5.37;;;18.30;99.90;;;;;;5103943;28;20416;-64
2022/09/20 05:45:04;;;;;;;4.87;4.40;;;18.20;99.90;;;;;;5102892;28;20492;-64
2022/09/20 05:47:45;;;;;;;6.30;5.30;;;18.20;99.90;;;;;;5093795;28;20467;-64
2022/09/20 05:50:40;;;;;;;7.37;5.90;;;18.10;99.90;;;;;;5104328;28;21174;-64
2022/09/20 05:53:34;;;;;;;5.97;5.37;;;18.00;99.90;;;;;;5114757;28;20426;-64
2022/09/20 05:56:18;;;;;;;7.30;5.70;;;17.90;99.90;;;;;;5103614;28;20421;-64
2022/09/20 05:58:59;;;;;;;6.00;5.40;;;17.80;99.90;;;;;;5103381;28;20498;-64
2022/09/20 06:01:37;;;;;;;6.67;5.33;;;17.80;99.90;;;;;;5083571;28;20454;-64
2022/09/20 06:04:17;;;;;;;11.53;5.37;;;17.70;99.90;;;;;;5083328;28;20402;-64
2022/09/20 06:07:09;;;;;;;6.97;5.70;;;17.70;99.90;;;;;;5083122;28;20451;-64
2022/09/20 06:09:57;;;;;;;7.60;5.70;;;17.60;99.90;;;;;;5089041;28;20443;-63
2022/09/20 06:12:51;;;;;;;5.30;4.80;;;17.70;99.90;;;;;;5083265;28;20434;-64
2022/09/20 06:15:28;;;;;;;5.40;4.90;;;17.70;99.90;;;;;;5107145;28;20437;-64
2022/09/20 06:18:06;;;;;;;7.10;5.20;;;17.60;99.90;;;;;;5106579;28;20509;-63
2022/09/20 06:20:46;;;;;;;5.10;4.60;;;17.60;99.90;;;;;;5121163;28;20582;-64
2022/09/20 06:23:18;;;;;;;6.50;5.33;;;17.50;99.90;;;;;;5109338;28;20476;-63
2022/09/20 06:25:56;;;;;;;6.37;5.77;;;17.40;99.90;;;;;;5107562;28;20529;-64
2022/09/20 06:28:34;;;;;;;6.60;5.33;;;17.30;99.90;;;;;;5118561;28;20449;-64
2022/09/20 06:31:07;;;;;;;6.33;5.20;;;17.40;99.90;;;;;;5100985;28;20437;-64
2022/09/20 06:33:44;;;;;;;6.30;5.70;;;17.40;99.90;;;;;;5103625;28;20786;-64
2022/09/20 06:42:05;;;;;;;5.73;5.10;;;17.20;99.90;;;;;;5091623;28;20462;-64
2022/09/20 06:44:40;;;;;;;7.30;5.10;;;17.20;99.90;;;;;;5110851;28;21119;-64
2022/09/20 06:47:11;;;;;;;6.93;5.40;;;17.10;99.90;;;;;;5102451;28;20454;-64
2022/09/20 06:49:43;;;;;;;5.87;4.67;;;17.10;99.90;;;;;;5105338;28;20990;-64
2022/09/20 06:52:16;;;;;;;8.13;5.70;;;17.00;99.90;;;;;;5108117;28;20483;-63
2022/09/20 06:54:49;;;;;;;8.97;6.40;;;16.90;99.90;;;;;;5119971;28;20458;-63
2022/09/20 06:57:23;;;;;;;5.70;4.50;;;16.80;99.90;;;;;;5110915;28;20519;-63
2022/09/20 06:59:55;;;;;;;5.97;5.13;;;16.80;99.90;;;;;;5104958;28;20427;-63
2022/09/20 07:02:27;;;;;;;6.70;4.37;;;16.80;99.90;;;;;;5101536;28;20444;-63
2022/09/20 07:04:58;;;;;;;4.80;4.30;;;16.80;99.90;;;;;;5106732;28;20450;-63
2022/09/20 07:07:29;;;;;;;5.53;4.33;;;16.70;99.90;;;;;;5105420;28;20553;-63
2022/09/20 07:10:00;;;;;;;6.27;4.77;;;16.60;99.90;;;;;;5098488;28;20488;-63
2022/09/20 07:12:32;;;;;;;6.67;4.30;;;16.60;99.90;;;;;;5107397;28;20438;-63
2022/09/20 07:15:06;;;;;;;6.37;5.20;;;16.60;99.90;;;;;;5105357;28;20454;-63
2022/09/20 07:17:36;;;;;;;6.20;4.57;;;16.60;99.90;;;;;;5107188;28;20452;-63
2022/09/20 07:20:08;;;;;;;10.43;5.83;;;16.60;99.90;;;;;;5101559;28;20481;-63
2022/09/20 07:22:38;;;;;;;6.00;4.93;;;16.60;99.90;;;;;;5101763;28;20466;-63
2022/09/20 07:25:10;;;;;;;7.80;4.20;;;16.50;99.90;;;;;;5102982;28;20462;-63
2022/09/20 07:27:41;;;;;;;6.17;5.17;;;16.40;99.90;;;;;;5100748;28;20491;-64
2022/09/20 07:30:15;;;;;;;5.27;4.77;;;16.50;99.90;;;;;;5104040;28;20457;-63
2022/09/20 07:32:45;;;;;;;5.17;4.50;;;16.50;99.90;;;;;;5112015;28;20454;-63
2022/09/20 07:35:17;;;;;;;5.80;5.20;;;16.50;99.90;;;;;;5107414;28;20472;-63
2022/09/20 07:37:48;;;;;;;4.73;4.23;;;16.40;99.90;;;;;;5107553;28;21037;-63
2022/09/20 07:40:19;;;;;;;5.83;4.60;;;16.40;99.90;;;;;;5099182;28;20869;-63
2022/09/20 07:42:50;;;;;;;5.00;4.50;;;16.30;99.90;;;;;;5093012;28;20438;-63
2022/09/20 07:45:26;;;;;;;4.93;4.50;;;16.30;99.90;;;;;;5103083;28;20508;-64
2022/09/20 07:48:04;;;;;;;5.83;5.23;;;16.30;99.90;;;;;;5101561;28;20437;-63
2022/09/20 07:50:35;;;;;;;4.90;4.23;;;16.30;99.90;;;;;;5113879;28;20457;-63
2022/09/20 07:53:06;;;;;;;5.10;4.10;;;16.10;99.90;;;;;;5098902;28;20446;-63
2022/09/20 07:55:36;;;;;;;6.33;4.50;;;16.00;99.90;;;;;;5113382;28;20789;-64
2022/09/20 07:58:08;;;;;;;5.53;4.10;;;16.00;99.90;;;;;;5105162;28;20495;-63
2022/09/20 08:00:40;;;;;;;4.67;4.20;;;15.90;99.90;;;;;;5109294;28;20457;-63
2022/09/20 08:03:11;;;;;;;5.10;4.60;;;15.90;99.90;;;;;;5109412;28;20458;-63
2022/09/20 08:05:42;;;;;;;5.77;4.17;;;15.80;99.90;;;;;;5109625;27;20466;-63
2022/09/20 08:08:12;;;;;;;4.87;4.00;;;15.80;99.90;;;;;;5113045;28;20531;-64
2022/09/20 08:10:43;;;;;;;5.27;4.30;;;15.80;99.90;;;;;;5117191;28;20458;-63
2022/09/20 08:13:15;;;;;;;4.93;4.37;;;15.80;99.90;;;;;;5104440;28;20486;-64
2022/09/20 08:16:10;;;;;;;5.27;4.50;;;15.70;99.90;;;;;;5102739;28;20485;-63
2022/09/20 08:18:47;;;;;;;5.73;3.83;;;15.70;99.90;;;;;;5103702;28;20456;-64
2022/09/20 08:21:18;;;;;;;3.70;3.40;;;15.70;99.90;;;;;;5106559;28;20451;-63
2022/09/20 08:23:49;;;;;;;4.13;3.73;;;15.70;99.90;;;;;;5105685;28;20507;-63
2022/09/20 08:26:22;;;;;;;5.20;4.70;;;15.60;99.90;;;;;;5104884;28;20463;-63
2022/09/20 08:28:54;;;;;;;3.73;3.40;;;15.60;99.90;;;;;;5100954;28;20512;-63
2022/09/20 08:31:27;;;;;;;6.13;4.60;;;15.50;99.90;;;;;;5124358;28;20445;-64
2022/09/20 08:34:01;;;;;;;4.40;4.00;;;15.60;99.90;;;;;;5116763;28;20438;-64
2022/09/20 08:36:34;;;;;;;4.83;4.33;;;15.60;99.90;;;;;;5114683;28;20461;-63
2022/09/20 08:39:06;;;;;;;6.27;4.00;;;15.50;99.90;;;;;;5110946;28;20559;-64
2022/09/20 08:42:01;;;;;;;5.17;4.33;;;15.50;99.90;;;;;;5107653;28;20469;-63
2022/09/20 08:44:35;;;;;;;4.80;4.30;;;15.50;99.90;;;;;;5106934;28;20427;-63
2022/09/20 08:47:16;;;;;;;4.97;4.43;;;15.40;99.90;;;;;;5103851;28;20492;-63
2022/09/20 08:49:47;;;;;;;4.33;3.63;;;15.40;99.90;;;;;;5114319;28;20465;-63
2022/09/20 08:52:22;;;;;;;5.70;3.97;;;15.30;99.90;;;;;;5107688;28;20458;-63
2022/09/20 08:54:53;;;;;;;4.70;4.20;;;15.30;99.90;;;;;;5094158;28;20513;-63
2022/09/20 08:57:24;;;;;;;4.47;3.70;;;15.20;99.90;;;;;;5104049;28;20462;-63
2022/09/20 08:59:55;;;;;;;4.87;4.10;;;15.10;99.90;;;;;;5118277;28;20485;-63
2022/09/20 09:02:31;;;;;;;6.07;3.73;;;15.20;99.90;;;;;;5107906;28;20523;-63
2022/09/20 09:05:23;;;;;;;4.13;3.80;;;15.10;99.90;;;;;;5109873;28;20421;-63
2022/09/20 09:07:54;;;;;;;4.97;3.80;;;15.10;99.90;;;;;;5102844;28;20492;-64
2022/09/20 09:10:25;;;;;;;3.80;3.37;;;15.10;99.90;;;;;;5110957;28;20832;-64
2022/09/20 09:12:57;;;;;;;4.20;3.60;;;15.20;99.90;;;;;;5107236;28;20519;-63
2022/09/20 09:15:32;;;;;;;3.83;3.53;;;15.20;99.90;;;;;;5106240;28;20535;-63
2022/09/20 09:18:06;;;;;;;3.30;3.00;;;15.30;99.90;;;;;;5107873;28;20461;-63
2022/09/20 09:20:43;;;;;;;4.00;3.60;;;15.30;99.90;;;;;;5103371;28;20613;-64
2022/09/20 09:23:25;;;;;;;3.67;3.30;;;15.40;99.90;;;;;;5103617;28;20507;-63
2022/09/20 09:25:57;;;;;;;3.93;3.57;;;15.40;99.90;;;;;;5103804;28;20433;-64
2022/09/20 09:28:30;;;;;;;3.27;3.07;;;15.40;99.90;;;;;;5116223;28;20506;-63
2022/09/20 09:31:15;;;;;;;4.03;3.17;;;15.40;99.90;;;;;;5112158;28;20586;-64
2022/09/20 09:33:47;;;;;;;6.23;3.17;;;15.40;99.90;;;;;;5117318;28;20544;-63
2022/09/20 09:36:24;;;;;;;3.80;3.07;;;15.40;99.90;;;;;;5114332;28;20450;-63
2022/09/20 09:39:16;;;;;;;4.13;2.67;;;15.40;99.90;;;;;;5109377;28;20507;-63
2022/09/20 09:41:47;;;;;;;3.40;3.10;;;15.40;99.90;;;;;;5102389;28;20492;-63
2022/09/20 09:44:23;;;;;;;4.60;2.77;;;15.30;99.90;;;;;;5110426;28;20488;-63
2022/09/20 09:46:55;;;;;;;3.33;3.03;;;15.30;99.90;;;;;;5116611;28;20519;-63
2022/09/20 09:49:29;;;;;;;3.40;3.10;;;15.30;99.90;;;;;;5111947;28;20475;-63
2022/09/20 09:52:08;;;;;;;3.70;2.77;;;15.30;99.90;;;;;;5117708;28;20484;-63
2022/09/20 09:54:41;;;;;;;3.10;2.80;;;15.30;99.90;;;;;;5117738;28;20491;-63
2022/09/20 09:57:33;;;;;;;2.80;2.60;;;15.30;99.90;;;;;;5106810;27;20496;-63
2022/09/20 10:00:12;;;;;;;2.67;2.47;;;15.20;99.90;;;;;;5113758;28;20465;-64
2022/09/20 10:03:14;;;;;;;3.00;2.53;;;15.20;99.90;;;;;;5106548;28;20459;-63
2022/09/20 10:06:04;;;;;;;3.50;2.87;;;15.20;99.90;;;;;;5099355;28;20463;-63
2022/09/20 10:08:45;;;;;;;3.90;3.60;;;15.20;99.90;;;;;;5101473;28;20997;-63
2022/09/20 10:11:30;;;;;;;3.20;2.80;;;15.10;99.90;;;;;;5104900;28;20454;-63
2022/09/20 10:14:14;;;;;;;3.60;3.13;;;15.20;99.90;;;;;;5116558;28;20940;-63
2022/09/20 10:16:58;;;;;;;4.07;3.67;;;15.10;99.90;;;;;;5103689;28;20466;-63
2022/09/20 10:19:43;;;;;;;3.20;2.90;;;15.10;99.90;;;;;;5102614;28;20486;-63
2022/09/20 10:22:24;;;;;;;2.97;2.70;;;15.00;99.90;;;;;;5108182;28;20571;-63
2022/09/20 10:25:05;;;;;;;3.33;3.03;;;14.90;99.90;;;;;;5104016;28;20458;-63
2022/09/20 10:27:47;;;;;;;3.07;2.63;;;14.90;99.90;;;;;;5101006;28;20560;-63
2022/09/20 10:30:20;;;;;;;2.97;2.70;;;14.90;99.90;;;;;;5102764;28;20458;-63
2022/09/20 10:33:11;;;;;;;2.97;2.77;;;14.90;99.90;;;;;;5103343;28;20486;-63
2022/09/20 10:36:02;;;;;;;3.30;3.00;;;14.90;99.90;;;;;;5101508;28;20916;-63
2022/09/20 10:38:39;;;;;;;3.80;3.20;;;14.90;99.90;;;;;;5094077;28;20510;-63
2022/09/20 10:44:13;;;;;;;4.10;3.53;;;14.80;99.90;;;;;;5103109;28;20459;-63
2022/09/20 10:46:57;;;;;;;2.90;2.60;;;14.70;99.90;;;;;;5105755;28;20464;-63
2022/09/20 10:49:35;;;;;;;3.50;3.20;;;14.70;99.90;;;;;;5104189;28;20545;-63
2022/09/20 10:52:31;;;;;;;3.00;2.70;;;14.70;99.90;;;;;;5106217;28;20441;-63
2022/09/20 10:55:15;;;;;;;3.73;2.70;;;14.60;99.90;;;;;;5101236;28;20500;-63
2022/09/20 10:58:32;;;;;;;2.50;2.30;;;14.60;99.90;;;;;;5101175;28;20519;-63
2022/09/20 11:01:08;;;;;;;3.20;2.90;;;14.60;99.90;;;;;;5086180;28;20483;-63
2022/09/20 11:04:08;;;;;;;3.37;3.13;;;14.50;99.90;;;;;;5101454;28;20530;-63
2022/09/20 11:06:51;;;;;;;4.80;3.10;;;14.60;99.90;;;;;;5097071;28;20582;-63
2022/09/20 11:09:26;;;;;;;4.40;3.70;;;14.60;99.90;;;;;;5104343;28;20458;-63
2022/09/20 11:12:07;;;;;;;3.23;2.97;;;14.50;99.90;;;;;;5104528;28;20458;-63
2022/09/20 11:14:45;;;;;;;3.33;2.60;;;14.50;99.90;;;;;;5103680;28;20494;-63
2022/09/20 11:17:23;;;;;;;3.53;2.20;;;14.50;99.90;;;;;;5105675;28;20522;-63
2022/09/20 11:20:01;;;;;;;2.67;2.47;;;14.40;99.90;;;;;;5115117;28;20489;-63
2022/09/20 11:22:42;;;;;;;2.73;2.17;;;14.50;99.90;;;;;;5100754;28;20500;-63
2022/09/20 11:25:18;;;;;;;3.10;2.90;;;14.40;99.90;;;;;;5106809;28;20518;-63
2022/09/20 11:27:59;;;;;;;3.77;3.10;;;14.30;99.90;;;;;;5101744;28;20455;-63
2022/09/20 11:30:31;;;;;;;2.50;2.20;;;14.30;99.90;;;;;;5100782;28;20465;-64
2022/09/20 11:33:07;;;;;;;5.80;3.13;;;14.30;99.90;;;;;;5102047;28;20510;-63
2022/09/20 11:35:43;;;;;;;3.80;3.13;;;14.30;99.90;;;;;;5101713;28;20462;-63
2022/09/20 11:38:20;;;;;;;2.70;2.50;;;14.30;99.90;;;;;;5100573;28;20458;-63
2022/09/20 11:40:55;;;;;;;3.83;3.43;;;14.30;99.90;;;;;;5102729;28;20496;-63
2022/09/20 11:43:29;;;;;;;4.07;3.00;;;14.20;99.90;;;;;;5102424;28;20496;-63
2022/09/20 11:46:04;;;;;;;3.23;2.90;;;14.10;99.90;;;;;;5105538;28;20464;-63
2022/09/20 11:48:40;;;;;;;4.10;3.13;;;14.00;99.90;;;;;;5118385;28;20468;-63
2022/09/20 11:51:38;;;;;;;3.83;3.27;;;14.00;99.90;;;;;;5102750;28;20430;-63
2022/09/20 11:54:42;;;;;;;3.77;3.33;;;14.10;99.90;;;;;;5113545;28;20442;-63
2022/09/20 11:57:16;;;;;;;3.90;3.50;;;14.00;99.90;;;;;;5107954;28;20451;-63
2022/09/20 11:59:55;;;;;;;3.57;2.97;;;14.00;99.90;;;;;;5113086;28;20453;-63
2022/09/20 12:02:34;;;;;;;4.43;3.53;;;14.00;99.90;;;;;;5105965;28;20446;-63
2022/09/20 12:05:07;;;;;;;4.87;3.30;;;13.90;99.90;;;;;;5122053;28;20445;-63
2022/09/20 12:07:40;;;;;;;3.60;3.30;;;13.90;99.90;;;;;;5107602;28;20987;-63
2022/09/20 12:10:24;;;;;;;3.60;3.30;;;13.80;99.90;;;;;;5104595;28;20442;-63
2022/09/20 12:12:59;;;;;;;2.83;2.50;;;13.80;99.90;;;;;;5120272;28;20471;-63
2022/09/20 12:15:35;;;;;;;3.23;2.93;;;13.70;99.90;;;;;;5096461;28;20519;-62
2022/09/20 12:18:14;;;;;;;2.70;2.50;;;13.70;99.90;;;;;;5100876;28;20462;-62
2022/09/20 12:21:13;;;;;;;4.90;2.80;;;13.60;99.90;;;;;;5099721;28;20524;-63
2022/09/20 12:24:01;;;;;;;5.20;2.40;;;13.60;99.90;;;;;;5104835;28;20467;-63
2022/09/20 12:26:50;;;;;;;3.27;2.83;;;13.60;99.90;;;;;;5104947;28;20458;-63
2022/09/20 12:30:05;;;;;;;4.30;2.63;;;13.60;99.90;;;;;;5114435;28;20640;-62
2022/09/20 12:32:57;;;;;;;4.63;3.03;;;13.60;99.90;;;;;;5009935;28;20470;-63
2022/09/20 12:36:17;;;;;;;3.53;2.80;;;13.60;99.90;;;;;;5018416;28;20478;-63
2022/09/20 12:38:55;;;;;;;3.07;2.73;;;13.50;99.90;;;;;;5016958;28;20500;-63
2022/09/20 12:41:27;;;;;;;3.60;2.40;;;13.40;99.90;;;;;;5019987;28;20493;-62
2022/09/20 12:44:04;;;;;;;2.70;2.50;;;13.50;99.90;;;;;;5021188;28;20523;-63
2022/09/20 12:46:39;;;;;;;2.60;2.40;;;13.50;99.90;;;;;;5021083;28;20955;-62
2022/09/20 12:52:59;;;;;;;3.20;2.20;;;13.50;99.90;;;;;;5021509;28;20449;-63
2022/09/20 12:55:39;;;;;;;2.73;2.30;;;13.40;99.90;;;;;;5021812;28;20635;-62
2022/09/20 12:58:29;;;;;;;3.23;2.93;;;13.30;99.90;;;;;;5021170;28;20465;-62
2022/09/20 13:01:43;;;;;;;3.50;2.43;;;13.30;99.90;;;;;;5019038;28;20579;-62
2022/09/20 13:05:01;;;;;;;2.63;2.43;;;13.30;99.90;;;;;;4981902;28;20456;-63
2022/09/20 13:07:47;;;;;;;2.53;2.33;;;13.20;99.90;;;;;;5053609;28;20486;-63
2022/09/20 13:10:28;;;;;;;2.47;2.27;;;13.10;99.90;;;;;;5060050;28;20460;-62
2022/09/20 13:13:04;;;;;;;2.90;2.60;;;13.10;99.90;;;;;;5062840;28;20514;-63
2022/09/20 13:15:36;;;;;;;2.70;2.50;;;13.10;99.90;;;;;;5066747;28;20464;-63
2022/09/20 13:18:08;;;;;;;2.63;2.40;;;13.10;99.90;;;;;;5067265;28;20482;-62
2022/09/20 13:20:38;;;;;;;3.00;2.37;;;13.20;99.90;;;;;;5068178;28;20495;-63
2022/09/20 13:23:19;;;;;;;2.87;2.57;;;13.10;99.90;;;;;;5064838;28;20544;-65
2022/09/20 13:25:52;;;;;;;2.70;2.50;;;13.10;99.90;;;;;;5066290;28;20481;-63
2022/09/20 13:28:34;;;;;;;2.70;2.50;;;13.00;99.90;;;;;;5063197;28;20467;-63
2022/09/20 13:31:29;;;;;;;3.17;2.60;;;12.90;99.90;;;;;;5060380;28;20476;-63
2022/09/20 13:34:20;;;;;;;2.60;2.40;;;12.80;99.90;;;;;;5063131;28;20599;-63
2022/09/20 13:36:56;;;;;;;3.03;2.83;;;12.90;99.90;;;;;;5103753;28;20455;-62
2022/09/20 13:39:36;;;;;;;4.27;3.20;;;12.80;99.90;;;;;;5114059;28;20461;-62
2022/09/20 13:42:11;;;;;;;3.60;2.97;;;12.80;99.90;;;;;;5115397;28;20587;-62
2022/09/20 13:44:44;;;;;;;3.37;2.80;;;12.80;99.90;;;;;;5093822;28;20457;-62
2022/09/20 13:47:27;;;;;;;3.17;2.57;;;12.80;99.90;;;;;;5112072;28;20484;-62
2022/09/20 13:50:17;;;;;;;4.53;2.77;;;12.60;99.90;;;;;;5112099;28;20455;-62
2022/09/20 13:52:50;;;;;;;2.73;2.50;;;12.60;99.90;;;;;;5103087;28;20488;-63
2022/09/20 13:55:29;;;;;;;3.30;2.83;;;12.60;99.90;;;;;;5103368;28;20466;-62
2022/09/20 13:58:03;;;;;;;5.30;2.80;;;12.50;99.90;;;;;;5103531;28;20471;-63
2022/09/20 14:00:36;;;;;;;4.00;3.10;;;12.50;99.90;;;;;;5104139;28;20466;-62
2022/09/20 14:03:07;;;;;;;2.53;2.20;;;12.50;99.90;;;;;;5106803;28;20454;-63
2022/09/20 14:05:38;;;;;;;4.40;3.03;;;12.50;99.90;;;;;;5105261;28;20465;-62
2022/09/20 14:08:19;;;;;;;3.57;2.87;;;12.50;99.90;;;;;;5109209;28;20471;-63
2022/09/20 14:11:03;;;;;;;3.07;2.17;;;12.60;99.90;;;;;;5107846;28;20953;-62
2022/09/20 14:13:40;;;;;;;2.93;2.67;;;12.50;99.90;;;;;;5103904;28;20480;-62
2022/09/20 14:16:12;;;;;;;3.80;2.90;;;12.50;99.90;;;;;;5104723;28;20790;-62